Time;durP1;ratioP1;P1;durP2;ratioP2;P2;SDS_P1;SDS_P2;PMS_P1;PMS_P2;Temp;Humidity;BMP_temperature;BMP_pressure;BME280_temperature;BME280_humidity;BME280_pressure;Samples;Min_cycle;Max_cycle;Signal;HPM_P1;HPM_P2
2022/04/05 00:00:57;;;;;;;1141.35;471.95;;;;;;;;;;6120890;23;20331;-90
2022/04/05 00:03:23;;;;;;;875.58;300.98;;;;;;;;;;6119411;23;20112;-90
2022/04/05 00:05:49;;;;;;;857.47;287.80;;;;;;;;;;6122189;23;19998;-90
2022/04/05 00:08:16;;;;;;;901.90;307.10;;;;;;;;;;6121902;23;20072;-90
2022/04/05 00:10:43;;;;;;;918.03;310.77;;;;;;;;;;6119927;23;20014;-90
2022/04/05 00:13:09;;;;;;;967.83;330.60;;;;;;;;;;6121403;23;20030;-90
2022/04/05 00:15:35;;;;;;;986.17;339.75;;;;;;;;;;6119875;23;20002;-90
2022/04/05 00:18:02;;;;;;;982.63;335.42;;;;;;;;;;6120808;23;20029;-90
2022/04/05 00:20:28;;;;;;;892.38;315.83;;;;;;;;;;6119828;23;20006;-90
2022/04/05 00:22:55;;;;;;;1053.85;401.60;;;;;;;;;;6118819;23;20014;-90
2022/04/05 00:25:21;;;;;;;981.00;337.45;;;;;;;;;;6119511;23;20002;-91
2022/04/05 00:27:47;;;;;;;1075.93;375.48;;;;;;;;;;6120774;23;20061;-89
2022/04/05 00:30:20;;;;;;;1139.05;361.17;;;;;;;;;;6118030;23;20467;-91
2022/04/05 00:32:45;;;;;;;;;;;;;;;;;;6122478;23;19998;-91
2022/04/05 00:35:12;;;;;;;;;;;;;;;;;;6120662;23;20405;-89
2022/04/05 00:37:38;;;;;;;;;;;;;;;;;;6121179;23;20346;-90
2022/04/05 00:40:05;;;;;;;;;;;;;;;;;;6120357;23;25065;-89
2022/04/05 00:42:31;;;;;;;;;;;;;;;;;;6120991;23;25093;-90
2022/04/05 00:44:58;;;;;;;;;;;;;;;;;;6120114;23;20727;-90
2022/04/05 00:47:24;;;;;;;;;;;;;;;;;;6119797;23;20466;-90
2022/04/05 00:49:50;;;;;;;;;;;;;;;;;;6121055;23;20402;-89
2022/04/05 00:52:16;;;;;;;;;;;;;;;;;;6119962;23;20336;-91
2022/04/05 00:54:42;;;;;;;;;;;;;;;;;;6118764;23;20676;-90
2022/04/05 00:57:08;;;;;;;;;;;;;;;;;;6119513;23;25129;-90
2022/04/05 00:59:33;;;;;;;;;;;;;;;;;;6119696;23;20770;-89
2022/04/05 01:02:00;;;;;;;1516.50;527.80;;;;;;;;;;6120099;23;25127;-89
2022/04/05 01:04:28;;;;;;;1221.25;428.98;;;;;;;;;;6121054;23;20303;-90
2022/04/05 01:06:55;;;;;;;1129.68;414.90;;;;;;;;;;6120941;23;20072;-89
2022/04/05 01:09:21;;;;;;;;;;;;;;;;;;6122486;23;20010;-89
2022/04/05 01:11:46;;;;;;;;;;;;;;;;;;6118657;23;20370;-91
2022/04/05 01:14:13;;;;;;;1522.32;533.42;;;;;;;;;;6119858;23;20682;-89
2022/04/05 01:16:39;;;;;;;1317.43;404.23;;;;;;;;;;6120512;23;20349;-91
2022/04/05 01:19:06;;;;;;;1390.70;708.43;;;;;;;;;;6121735;23;20006;-91
2022/04/05 01:21:35;;;;;;;940.85;285.05;;;;;;;;;;6118765;23;20767;-90
2022/04/05 01:24:06;;;;;;;998.28;557.80;;;;;;;;;;6122346;23;20399;-90
2022/04/05 01:26:58;;;;;;;1336.30;707.73;;;;;;;;;;6120810;23;20444;-89
2022/04/05 01:29:26;;;;;;;1373.20;459.83;;;;;;;;;;6118068;23;20392;-91
2022/04/05 01:31:52;;;;;;;;;;;;;;;;;;6122002;23;19944;-90
2022/04/05 01:34:20;;;;;;;1388.78;466.17;;;;;;;;;;6122169;23;25077;-90
2022/04/05 01:36:50;;;;;;;1062.95;654.40;;;;;;;;;;6144371;23;20029;-90
2022/04/05 01:39:16;;;;;;;;;;;;;;;;;;6148009;23;20046;-90
2022/04/05 01:41:42;;;;;;;;;;;;;;;;;;6145762;23;20370;-90
2022/04/05 01:44:08;;;;;;;;;;;;;;;;;;6121436;23;20334;-90
2022/04/05 01:46:34;;;;;;;1548.70;556.20;;;;;;;;;;6119537;23;21030;-90
2022/04/05 01:49:00;;;;;;;1499.37;517.43;;;;;;;;;;6117634;23;20403;-90
2022/04/05 01:51:26;;;;;;;1477.00;514.55;;;;;;;;;;6120454;23;20810;-90
2022/04/05 01:53:53;;;;;;;1428.80;804.80;;;;;;;;;;6121899;23;20009;-90
2022/04/05 01:56:19;;;;;;;1361.85;792.55;;;;;;;;;;6121632;23;20010;-90
2022/04/05 01:58:49;;;;;;;1288.93;744.83;;;;;;;;;;6121155;23;20029;-90
2022/04/05 02:01:15;;;;;;;1379.95;486.20;;;;;;;;;;6120150;23;20343;-91
2022/04/05 02:03:43;;;;;;;1303.75;724.72;;;;;;;;;;6122116;23;20457;-90
2022/04/05 02:06:10;;;;;;;;;;;;;;;;;;6121325;23;20006;-90
2022/04/05 02:08:36;;;;;;;1452.15;523.80;;;;;;;;;;6117518;23;20526;-91
2022/04/05 02:11:01;;;;;;;;;;;;;;;;;;6115439;23;20710;-90
2022/04/05 02:13:27;;;;;;;;;;;;;;;;;;6117397;23;20807;-90
2022/04/05 02:15:53;;;;;;;;;;;;;;;;;;6115063;23;20365;-90
2022/04/05 02:18:19;;;;;;;;;;;;;;;;;;6113261;23;20344;-90
2022/04/05 02:20:49;;;;;;;;;;;;;;;;;;6117751;23;20346;-89
2022/04/05 02:23:15;;;;;;;;;;;;;;;;;;6115054;23;20397;-90
2022/04/05 02:25:41;;;;;;;1475.53;487.75;;;;;;;;;;6115416;23;20412;-89
2022/04/05 02:28:07;;;;;;;;;;;;;;;;;;6119671;23;20030;-89
2022/04/05 02:30:34;;;;;;;;;;;;;;;;;;6116094;23;20373;-90
2022/04/05 02:33:00;;;;;;;1537.65;494.15;;;;;;;;;;6117259;23;20433;-91
2022/04/05 02:35:26;;;;;;;1545.40;492.23;;;;;;;;;;6118062;23;20357;-89
2022/04/05 02:37:52;;;;;;;;;;;;;;;;;;6119919;23;20029;-89
2022/04/05 02:40:18;;;;;;;;;;;;;;;;;;6118528;23;20681;-88
2022/04/05 02:42:44;;;;;;;;;;;;;;;;;;6119488;23;20805;-89
2022/04/05 02:45:10;;;;;;;;;;;;;;;;;;6118985;23;20591;-89
2022/04/05 02:47:36;;;;;;;;;;;;;;;;;;6118911;23;20314;-93
2022/04/05 02:50:05;;;;;;;;;;;;;;;;;;6120266;23;20742;-92
2022/04/05 02:55:17;;;;;;;;;;;;;;;;;;6120495;23;20331;-90
2022/04/05 02:57:43;;;;;;;;;;;;;;;;;;6117311;23;20357;-88
2022/04/05 03:00:11;;;;;;;;;;;;;;;;;;6118800;23;20462;-89
2022/04/05 03:02:37;;;;;;;;;;;;;;;;;;6116636;23;20338;-90
2022/04/05 03:05:05;;;;;;;;;;;;;;;;;;6116761;23;20333;-90
2022/04/05 03:07:31;;;;;;;;;;;;;;;;;;6119195;23;20356;-89
2022/04/05 03:09:56;;;;;;;;;;;;;;;;;;6116551;23;20416;-90
2022/04/05 03:12:22;;;;;;;;;;;;;;;;;;6116810;23;20348;-89
2022/04/05 03:14:48;;;;;;;;;;;;;;;;;;6119775;23;20756;-89
2022/04/05 03:17:14;;;;;;;;;;;;;;;;;;6118711;23;25067;-90
2022/04/05 03:19:40;;;;;;;;;;;;;;;;;;6118369;23;20779;-90
2022/04/05 03:22:06;;;;;;;;;;;;;;;;;;6119240;23;20398;-90
2022/04/05 03:24:32;;;;;;;;;;;;;;;;;;6118761;23;25084;-88
2022/04/05 03:26:58;;;;;;;;;;;;;;;;;;6116664;23;20349;-90
2022/04/05 03:29:24;;;;;;;;;;;;;;;;;;6118305;23;20435;-91
2022/04/05 03:31:50;;;;;;;;;;;;;;;;;;6118242;23;20381;-89
2022/04/05 03:34:16;;;;;;;;;;;;;;;;;;6119280;23;25143;-88
2022/04/05 03:36:43;;;;;;;;;;;;;;;;;;6119683;23;20829;-89
2022/04/05 03:39:10;;;;;;;;;;;;;;;;;;6119113;23;20342;-90
2022/04/05 03:41:36;;;;;;;;;;;;;;;;;;6117626;23;20445;-91
2022/04/05 03:44:05;;;;;;;;;;;;;;;;;;6117732;23;20341;-91
2022/04/05 03:46:38;;;;;;;;;;;;;;;;;;6117766;23;20368;-91
2022/04/05 03:49:07;;;;;;;;;;;;;;;;;;6120791;23;20764;-94
2022/04/05 04:02:38;;;;;;;;;;;;;;;;;;5973670;24;20361;-92
2022/04/05 04:22:14;;;;;;;;;;;;;;;;;;5739319;24;20388;-93
2022/04/05 04:44:25;;;;;;;;;;;;;;;;;;5739266;24;20399;-89
2022/04/05 04:46:54;;;;;;;;;;;;;;;;;;5809969;24;25070;-90
2022/04/05 04:49:19;;;;;;;;;;;;;;;;;;5947206;23;20385;-91
2022/04/05 04:51:45;;;;;;;;;;;;;;;;;;6119296;23;20384;-90
2022/04/05 04:54:21;;;;;;;;;;;;;;;;;;;;;
2022/04/05 04:56:48;;;;;;;;;;;;;;;;;;6122144;23;20444;-92
2022/04/05 04:59:23;;;;;;;;;;;;;;;;;;6121337;23;20364;-92
2022/04/05 05:08:03;;;;;;;;;;;;;;;;;;6063257;23;20358;-93
2022/04/05 05:15:48;;;;;;;;;;;;;;;;;;6062703;23;20373;-92
2022/04/05 05:18:16;;;;;;;;;;;;;;;;;;6060376;23;20727;-87
2022/04/05 05:20:42;;;;;;;;;;;;;;;;;;6036374;23;20341;-89
2022/04/05 05:23:07;;;;;;;;;;;;;;;;;;6036269;23;20488;-89
2022/04/05 05:25:33;;;;;;;;;;;;;;;;;;6103042;23;20344;-89
2022/04/05 05:27:59;;;;;;;;;;;;;;;;;;6119947;23;25119;-91
2022/04/05 05:30:25;;;;;;;;;;;;;;;;;;6120434;23;25079;-90
2022/04/05 05:32:51;;;;;;;;;;;;;;;;;;6120781;23;25096;-90
2022/04/05 05:35:17;;;;;;;;;;;;;;;;;;6119758;23;20764;-90
2022/04/05 05:37:43;;;;;;;;;;;;;;;;;;6119123;23;20342;-90
2022/04/05 05:40:09;;;;;;;;;;;;;;;;;;6120650;23;20844;-90
2022/04/05 05:42:35;;;;;;;;;;;;;;;;;;6120981;23;20357;-91
2022/04/05 05:45:01;;;;;;;;;;;;;;;;;;6119936;23;20370;-89
2022/04/05 05:47:27;;;;;;;;;;;;;;;;;;6121788;23;20356;-90
2022/04/05 05:49:53;;;;;;;;;;;;;;;;;;6122718;23;20367;-90
2022/04/05 05:52:19;;;;;;;;;;;;;;;;;;6120906;23;20356;-91
2022/04/05 05:54:45;;;;;;;;;;;;;;;;;;6122067;23;20430;-92
2022/04/05 05:57:10;;;;;;;;;;;;;;;;;;6119918;23;25066;-90
2022/04/05 05:59:36;;;;;;;;;;;;;;;;;;6121514;23;20351;-90
2022/04/05 06:02:02;;;;;;;;;;;;;;;;;;6121692;23;20673;-91
2022/04/05 06:04:28;;;;;;;;;;;;;;;;;;6121230;23;20425;-90
2022/04/05 06:06:54;;;;;;;;;;;;;;;;;;6121549;23;20345;-90
2022/04/05 06:09:20;;;;;;;;;;;;;;;;;;6121069;23;20476;-91
2022/04/05 06:11:46;;;;;;;;;;;;;;;;;;6121407;23;20349;-91
2022/04/05 06:14:12;;;;;;;;;;;;;;;;;;6119383;23;25108;-91
2022/04/05 06:16:38;;;;;;;;;;;;;;;;;;6120687;23;20346;-90
2022/04/05 06:19:04;;;;;;;;;;;;;;;;;;6120036;23;20352;-90
2022/04/05 06:21:30;;;;;;;;;;;;;;;;;;6121901;23;25112;-91
2022/04/05 06:23:56;;;;;;;;;;;;;;;;;;6122059;23;20387;-91
2022/04/05 06:26:22;;;;;;;;;;;;;;;;;;6120477;23;20340;-90
2022/04/05 06:28:48;;;;;;;;;;;;;;;;;;6119688;23;20729;-89
2022/04/05 06:31:16;;;;;;;;;;;;;;;;;;6122208;23;20355;-90
2022/04/05 06:33:42;;;;;;;;;;;;;;;;;;6120653;23;25073;-91
2022/04/05 06:36:07;;;;;;;;;;;;;;;;;;6121983;23;20807;-91
2022/04/05 06:38:33;;;;;;;;;;;;;;;;;;6120961;23;20370;-90
2022/04/05 06:41:00;;;;;;;;;;;;;;;;;;6121969;23;20405;-90
2022/04/05 06:43:26;;;;;;;;;;;;;;;;;;6120771;23;20325;-89
2022/04/05 06:45:52;;;;;;;;;;;;;;;;;;6120731;23;20729;-89
2022/04/05 06:48:19;;;;;;;;;;;;;;;;;;6136108;23;20342;-87
2022/04/05 06:50:45;;;;;;;;;;;;;;;;;;6148025;23;20506;-89
2022/04/05 06:53:11;;;;;;;;;;;;;;;;;;6145844;23;20333;-89
2022/04/05 06:55:36;;;;;;;;;;;;;;;;;;6133618;23;20350;-90
2022/04/05 06:58:02;;;;;;;;;;;;;;;;;;6123223;23;20356;-93
2022/04/05 07:00:28;;;;;;;;;;;;;;;;;;6120878;23;25122;-90
2022/04/05 07:02:54;;;;;;;;;;;;;;;;;;6120185;23;20332;-90
2022/04/05 07:05:20;;;;;;;;;;;;;;;;;;6120489;23;20772;-90
2022/04/05 07:07:46;;;;;;;;;;;;;;;;;;6118350;23;20350;-92
2022/04/05 07:10:12;;;;;;;;;;;;;;;;;;6118585;23;20473;-91
2022/04/05 07:12:38;;;;;;;;;;;;;;;;;;6120883;23;20354;-91
2022/04/05 07:15:04;;;;;;;;;;;;;;;;;;6121055;23;20354;-90
2022/04/05 07:17:30;;;;;;;;;;;;;;;;;;6120509;23;20387;-90
2022/04/05 07:19:56;;;;;;;;;;;;;;;;;;6121870;23;20332;-90
2022/04/05 07:22:24;;;;;;;;;;;;;;;;;;6119701;23;20380;-91
2022/04/05 07:24:50;;;;;;;;;;;;;;;;;;6120892;23;20355;-89
2022/04/05 07:27:16;;;;;;;;;;;;;;;;;;6121260;23;20335;-90
2022/04/05 07:29:44;;;;;;;;;;;;;;;;;;6121004;23;20464;-90
2022/04/05 07:32:10;;;;;;;;;;;;;;;;;;6120459;23;20818;-91
2022/04/05 07:34:36;;;;;;;;;;;;;;;;;;6119769;23;20831;-90
2022/04/05 07:37:02;;;;;;;;;;;;;;;;;;6121896;23;20387;-90
2022/04/05 07:39:27;;;;;;;;;;;;;;;;;;6122176;23;20330;-91
2022/04/05 07:41:53;;;;;;;;;;;;;;;;;;6120455;23;20368;-90
2022/04/05 07:44:19;;;;;;;;;;;;;;;;;;6121165;23;25087;-90
2022/04/05 07:46:45;;;;;;;;;;;;;;;;;;6123815;23;20362;-90
2022/04/05 07:49:11;;;;;;;;;;;;;;;;;;6122872;23;20423;-91
2022/04/05 07:51:37;;;;;;;;;;;;;;;;;;6123125;23;20349;-90
2022/04/05 07:54:03;;;;;;;;;;;;;;;;;;6124000;23;20341;-89
2022/04/05 07:56:29;;;;;;;;;;;;;;;;;;6125045;23;20334;-90
2022/04/05 07:58:55;;;;;;;;;;;;;;;;;;6121758;23;20368;-89
2022/04/05 08:01:21;;;;;;;;;;;;;;;;;;6122860;23;20324;-90
2022/04/05 08:03:47;;;;;;;;;;;;;;;;;;6123127;23;20343;-89
2022/04/05 08:06:13;;;;;;;;;;;;;;;;;;6122114;23;20341;-90
2022/04/05 08:08:39;;;;;;;;;;;;;;;;;;6122863;23;20469;-90
2022/04/05 08:11:05;;;;;;;;;;;;;;;;;;6123304;23;25078;-91
2022/04/05 08:13:31;;;;;;;;;;;;;;;;;;6124460;23;20349;-90
2022/04/05 08:15:57;;;;;;;;;;;;;;;;;;6120900;23;20348;-90
2022/04/05 08:18:23;;;;;;;;;;;;;;;;;;6121744;23;25079;-90
2022/04/05 08:20:49;;;;;;;;;;;;;;;;;;6122668;23;20338;-90
2022/04/05 08:23:15;;;;;;;;;;;;;;;;;;6121287;23;25107;-90
2022/04/05 08:25:41;;;;;;;;;;;;;;;;;;6123574;23;20347;-89
2022/04/05 08:28:06;;;;;;;;;;;;;;;;;;6121119;23;20366;-90
2022/04/05 08:30:32;;;;;;;;;;;;;;;;;;6122925;23;25072;-89
2022/04/05 08:32:58;;;;;;;;;;;;;;;;;;6119720;23;20357;-90
2022/04/05 08:35:24;;;;;;;;;;;;;;;;;;6120091;23;20953;-89
2022/04/05 08:37:50;;;;;;;;;;;;;;;;;;6121793;23;20368;-88
2022/04/05 08:40:16;;;;;;;;;;;;;;;;;;6122315;23;20408;-90
2022/04/05 08:42:42;;;;;;;;;;;;;;;;;;6121382;23;20346;-90
2022/04/05 08:45:10;;;;;;;;;;;;;;;;;;6120800;23;25117;-90
2022/04/05 08:47:36;;;;;;;;;;;;;;;;;;6123785;23;20679;-90
2022/04/05 08:50:02;;;;;;;;;;;;;;;;;;6122525;23;20382;-90
2022/04/05 08:52:28;;;;;;;;;;;;;;;;;;6121299;23;20355;-89
2022/04/05 08:54:54;;;;;;;;;;;;;;;;;;6120298;23;20873;-89
2022/04/05 08:57:20;;;;;;;;;;;;;;;;;;6121417;23;20431;-90
2022/04/05 08:59:46;;;;;;;;;;;;;;;;;;6122301;23;20909;-90
2022/04/05 09:02:14;;;;;;;;;;;;;;;;;;6122352;23;20327;-88
2022/04/05 09:04:40;;;;;;;;;;;;;;;;;;6121038;23;20346;-90
2022/04/05 09:07:05;;;;;;;;;;;;;;;;;;6122591;23;20358;-89
2022/04/05 09:09:31;;;;;;;;;;;;;;;;;;6120698;23;20618;-91
2022/04/05 09:11:59;;;;;;;;;;;;;;;;;;6129425;23;20752;-89
2022/04/05 09:14:25;;;;;;;;;;;;;;;;;;6122475;23;20345;-90
2022/04/05 09:16:51;;;;;;;;;;;;;;;;;;6121173;23;20352;-89
2022/04/05 09:19:17;;;;;;;;;;;;;;;;;;6121544;23;20377;-89
2022/04/05 09:21:43;;;;;;;;;;;;;;;;;;6124753;23;20376;-88
2022/04/05 09:24:09;;;;;;;;;;;;;;;;;;6140520;23;20344;-89
2022/04/05 09:26:35;;;;;;;;;;;;;;;;;;6146062;23;27071;-89
2022/04/05 09:29:01;;;;;;;;;;;;;;;;;;6148309;23;20395;-89
2022/04/05 09:31:27;;;;;;;;;;;;;;;;;;6125219;23;20354;-90
2022/04/05 09:33:53;;;;;;;;;;;;;;;;;;6122860;23;20334;-89
2022/04/05 09:36:19;;;;;;;;;;;;;;;;;;6124474;23;20428;-92
2022/04/05 09:38:46;;;;;;;;;;;;;;;;;;6129114;23;20820;-90
2022/04/05 09:41:12;;;;;;;;;;;;;;;;;;6120230;23;20368;-90
2022/04/05 09:43:38;;;;;;;;;;;;;;;;;;6121635;23;20333;-91
2022/04/05 09:46:05;;;;;;;;;;;;;;;;;;6119423;23;20352;-89
2022/04/05 09:48:31;;;;;;;;;;;;;;;;;;6121467;23;20683;-90
2022/04/05 09:50:58;;;;;;;;;;;;;;;;;;6119525;23;20359;-89
2022/04/05 09:53:24;;;;;;;;;;;;;;;;;;6121310;23;20331;-90
2022/04/05 09:55:50;;;;;;;;;;;;;;;;;;6121602;23;20407;-89
2022/04/05 09:58:16;;;;;;;;;;;;;;;;;;6121560;23;20327;-89
2022/04/05 10:00:44;;;;;;;;;;;;;;;;;;6118904;23;20331;-88
2022/04/05 10:03:10;;;;;;;;;;;;;;;;;;6119829;23;25076;-90
2022/04/05 10:05:36;;;;;;;;;;;;;;;;;;6120025;23;20352;-88
2022/04/05 10:08:02;;;;;;;;;;;;;;;;;;6121065;23;20342;-89
2022/04/05 10:10:28;;;;;;;;;;;;;;;;;;6121213;23;20391;-89
2022/04/05 10:12:54;;;;;;;;;;;;;;;;;;6120755;23;20332;-88
2022/04/05 10:15:21;;;;;;;;;;;;;;;;;;6121057;23;20425;-89
2022/04/05 10:17:47;;;;;;;;;;;;;;;;;;6119950;23;20340;-90
2022/04/05 10:20:13;;;;;;;;;;;;;;;;;;6120784;23;20428;-90
2022/04/05 10:22:39;;;;;;;;;;;;;;;;;;6119951;23;20819;-90
2022/04/05 10:25:05;;;;;;;;;;;;;;;;;;6118402;23;20684;-90
2022/04/05 10:27:31;;;;;;;;;;;;;;;;;;6119043;23;20869;-90
2022/04/05 10:29:57;;;;;;;;;;;;;;;;;;6119290;23;20464;-88
2022/04/05 10:32:23;;;;;;;;;;;;;;;;;;6118442;23;25096;-89
2022/04/05 10:34:50;;;;;;;;;;;;;;;;;;6119403;23;20436;-89
2022/04/05 10:37:19;;;;;;;;;;;;;;;;;;6121059;23;20391;-89
2022/04/05 10:39:45;;;;;;;;;;;;;;;;;;6120460;23;20828;-89
2022/04/05 10:42:11;;;;;;;;;;;;;;;;;;6121272;23;25074;-89
2022/04/05 10:44:38;;;;;;;;;;;;;;;;;;6119603;23;20356;-89
2022/04/05 10:47:06;;;;;;;;;;;;;;;;;;6120148;23;20786;-89
2022/04/05 10:49:32;;;;;;;;;;;;;;;;;;6118719;23;25080;-88
2022/04/05 10:51:58;;;;;;;;;;;;;;;;;;6120924;23;20383;-90
2022/04/05 10:54:27;;;;;;;;;;;;;;;;;;6120288;23;25076;-89
2022/04/05 10:56:53;;;;;;;;;;;;;;;;;;6117987;23;20340;-89
2022/04/05 10:59:19;;;;;;;;;;;;;;;;;;6120289;23;20878;-89
2022/04/05 11:01:45;;;;;;;;;;;;;;;;;;6120030;23;20430;-89
2022/04/05 11:04:17;;;;;;;;;;;;;;;;;;6121235;23;20370;-90
2022/04/05 11:06:46;;;;;;;;;;;;;;;;;;6121053;23;20360;-91
2022/04/05 11:09:11;;;;;;;;;;;;;;;;;;6120852;23;20382;-89
2022/04/05 11:11:38;;;;;;;;;;;;;;;;;;6121205;23;20424;-91
2022/04/05 11:14:06;;;;;;;;;;;;;;;;;;6118048;23;20365;-89
2022/04/05 11:16:32;;;;;;;;;;;;;;;;;;6117723;23;20345;-88
2022/04/05 11:18:58;;;;;;;;;;;;;;;;;;6119973;23;20357;-89
2022/04/05 11:21:24;;;;;;;;;;;;;;;;;;6118924;23;20328;-90
2022/04/05 11:23:50;;;;;;;;;;;;;;;;;;6119745;23;20683;-88
2022/04/05 11:26:16;;;;;;;;;;;;;;;;;;6121137;23;20364;-88
2022/04/05 11:28:42;;;;;;;;;;;;;;;;;;6122506;23;25122;-89
2022/04/05 11:31:08;;;;;;;;;;;;;;;;;;6120260;23;20482;-88
2022/04/05 11:33:34;;;;;;;;;;;;;;;;;;6119823;23;25108;-89
2022/04/05 11:36:00;;;;;;;;;;;;;;;;;;6120182;23;20332;-89
2022/04/05 11:38:26;;;;;;;;;;;;;;;;;;6120031;23;20358;-89
2022/04/05 11:40:52;;;;;;;;;;;;;;;;;;6117953;23;20350;-89
2022/04/05 11:43:18;;;;;;;;;;;;;;;;;;6119846;23;20408;-89
2022/04/05 11:45:44;;;;;;;;;;;;;;;;;;6120971;23;20383;-89
2022/04/05 11:48:10;;;;;;;;;;;;;;;;;;6118163;23;20436;-89
2022/04/05 11:50:37;;;;;;;;;;;;;;;;;;6120157;23;20938;-89
2022/04/05 11:53:03;;;;;;;;;;;;;;;;;;6120845;23;20342;-89
2022/04/05 11:58:14;;;;;;;;;;;;;;;;;;6144594;23;20368;-88
2022/04/05 12:00:39;;;;;;;;;;;;;;;;;;6142446;23;20338;-88
2022/04/05 12:03:10;;;;;;;;;;;;;;;;;;6127766;23;20389;-89
2022/04/05 12:05:36;;;;;;;;;;;;;;;;;;6118836;23;20666;-89
2022/04/05 12:08:02;;;;;;;;;;;;;;;;;;6118456;23;20402;-89
2022/04/05 12:10:28;;;;;;;;;;;;;;;;;;6117660;23;20381;-89
2022/04/05 12:12:54;;;;;;;;;;;;;;;;;;6119773;23;20330;-88
2022/04/05 12:15:21;;;;;;;;;;;;;;;;;;6117737;23;20686;-89
2022/04/05 12:17:48;;;;;;;;;;;;;;;;;;6120956;23;20353;-88
2022/04/05 12:20:13;;;;;;;;;;;;;;;;;;6119068;23;25097;-88
2022/04/05 12:22:39;;;;;;;;;;;;;;;;;;6119886;23;20326;-90
2022/04/05 12:25:05;;;;;;;;;;;;;;;;;;6119298;23;25109;-89
2022/04/05 12:27:31;;;;;;;;;;;;;;;;;;6119592;23;25108;-89
2022/04/05 12:29:57;;;;;;;;;;;;;;;;;;6120032;23;20849;-89
2022/04/05 12:32:26;;;;;;;;;;;;;;;;;;6120993;23;25099;-89
2022/04/05 12:34:52;;;;;;;;;;;;;;;;;;6122358;23;20362;-89
2022/04/05 12:37:18;;;;;;;;;;;;;;;;;;6123710;23;20336;-90
2022/04/05 12:39:44;;;;;;;;;;;;;;;;;;6123667;23;20327;-89
2022/04/05 12:42:10;;;;;;;;;;;;;;;;;;6119780;23;20347;-89
2022/04/05 12:44:36;;;;;;;;;;;;;;;;;;6121433;23;20344;-89
2022/04/05 12:47:02;;;;;;;;;;;;;;;;;;6119911;23;20415;-89
2022/04/05 12:49:31;;;;;;;;;;;;;;;;;;6120736;23;20387;-89
2022/04/05 12:51:57;;;;;;;;;;;;;;;;;;6121327;23;20373;-89
2022/04/05 12:54:23;;;;;;;;;;;;;;;;;;6121572;23;20334;-88
2022/04/05 12:56:49;;;;;;;;;;;;;;;;;;6122163;23;20371;-88
2022/04/05 12:59:15;;;;;;;;;;;;;;;;;;6120888;23;20371;-89
2022/04/05 13:01:41;;;;;;;;;;;;;;;;;;6119665;23;20345;-89
2022/04/05 13:04:07;;;;;;;;;;;;;;;;;;6121365;23;20796;-89
2022/04/05 13:06:33;;;;;;;;;;;;;;;;;;6121116;23;20351;-89
2022/04/05 13:08:59;;;;;;;;;;;;;;;;;;6119228;23;25114;-89
2022/04/05 13:11:29;;;;;;;;;;;;;;;;;;6120773;23;25149;-89
2022/04/05 13:13:55;;;;;;;;;;;;;;;;;;6120515;23;20364;-88
2022/04/05 13:16:21;;;;;;;;;;;;;;;;;;6121306;23;20808;-89
2022/04/05 13:18:47;;;;;;;;;;;;;;;;;;6123426;23;20350;-89
2022/04/05 13:21:13;;;;;;;;;;;;;;;;;;6121424;23;20366;-89
2022/04/05 13:23:39;;;;;;;;;;;;;;;;;;6118848;23;20704;-88
2022/04/05 13:26:05;;;;;;;;;;;;;;;;;;6120983;23;20374;-89
2022/04/05 13:28:31;;;;;;;;;;;;;;;;;;6119841;23;20345;-92
2022/04/05 13:30:57;;;;;;;;;;;;;;;;;;6119696;23;20465;-89
2022/04/05 13:33:23;;;;;;;;;;;;;;;;;;6120538;23;20374;-89
2022/04/05 13:35:49;;;;;;;;;;;;;;;;;;6120861;23;25101;-90
2022/04/05 13:38:15;;;;;;;;;;;;;;;;;;6120564;23;20427;-89
2022/04/05 13:40:41;;;;;;;;;;;;;;;;;;6121149;23;20744;-89
2022/04/05 13:43:09;;;;;;;;;;;;;;;;;;6119038;23;20335;-89
2022/04/05 13:45:35;;;;;;;;;;;;;;;;;;6119642;23;20397;-89
2022/04/05 13:48:00;;;;;;;;;;;;;;;;;;6121256;23;20343;-90
2022/04/05 13:50:26;;;;;;;;;;;;;;;;;;6118554;23;20383;-89
2022/04/05 13:52:52;;;;;;;;;;;;;;;;;;6119554;23;20729;-89
2022/04/05 13:55:18;;;;;;;;;;;;;;;;;;6121366;23;20347;-89
2022/04/05 13:57:44;;;;;;;;;;;;;;;;;;6120697;23;20344;-89
2022/04/05 14:00:10;;;;;;;;;;;;;;;;;;6121043;23;20374;-88
2022/04/05 14:02:36;;;;;;;;;;;;;;;;;;6119727;23;20341;-89
2022/04/05 14:05:03;;;;;;;;;;;;;;;;;;6119160;23;20409;-89
2022/04/05 14:07:29;;;;;;;;;;;;;;;;;;6118653;23;20402;-89
2022/04/05 14:09:55;;;;;;;;;;;;;;;;;;6120216;23;20366;-88
2022/04/05 14:12:21;;;;;;;;;;;;;;;;;;6120050;23;20350;-89
2022/04/05 14:14:47;;;;;;;;;;;;;;;;;;6119759;23;20352;-89
2022/04/05 14:17:13;;;;;;;;;;;;;;;;;;6118695;23;20350;-89
2022/04/05 14:19:39;;;;;;;;;;;;;;;;;;6121450;23;20350;-89
2022/04/05 14:22:05;;;;;;;;;;;;;;;;;;6119354;23;20335;-89
2022/04/05 14:24:31;;;;;;;;;;;;;;;;;;6120715;23;20794;-89
2022/04/05 14:26:57;;;;;;;;;;;;;;;;;;6126928;23;20375;-89
2022/04/05 14:29:23;;;;;;;;;;;;;;;;;;6142726;23;20366;-89
2022/04/05 14:31:49;;;;;;;;;;;;;;;;;;6141423;23;20419;-89
2022/04/05 14:34:15;;;;;;;;;;;;;;;;;;6128606;23;20570;-88
2022/04/05 14:36:42;;;;;;;;;;;;;;;;;;6118808;23;20347;-90
2022/04/05 14:39:09;;;;;;;;;;;;;;;;;;6120467;23;20440;-89
2022/04/05 14:41:35;;;;;;;;;;;;;;;;;;6120134;23;25086;-89
2022/04/05 14:44:01;;;;;;;;;;;;;;;;;;6120087;23;20358;-89
2022/04/05 14:46:26;;;;;;;;;;;;;;;;;;6118608;23;20417;-89
2022/04/05 14:48:52;;;;;;;;;;;;;;;;;;6120140;23;20454;-88
2022/04/05 14:51:19;;;;;;;;;;;;;;;;;;6117853;23;20362;-89
2022/04/05 14:53:45;;;;;;;;;;;;;;;;;;6118137;23;20736;-88
2022/04/05 14:56:11;;;;;;;;;;;;;;;;;;6119542;23;25156;-89
2022/04/05 14:58:36;;;;;;;;;;;;;;;;;;6118321;23;20422;-89
2022/04/05 15:01:02;;;;;;;;;;;;;;;;;;6118957;23;20376;-89
2022/04/05 15:03:28;;;;;;;;;;;;;;;;;;6118325;23;20352;-89
2022/04/05 15:05:54;;;;;;;;;;;;;;;;;;6118955;23;20396;-88
2022/04/05 15:08:21;;;;;;;;;;;;;;;;;;6120052;23;20447;-87
2022/04/05 15:10:47;;;;;;;;;;;;;;;;;;6119962;23;20393;-89
2022/04/05 15:13:13;;;;;;;;;;;;;;;;;;6119167;23;20809;-89
2022/04/05 15:15:39;;;;;;;;;;;;;;;;;;6119782;23;20430;-89
2022/04/05 15:18:05;;;;;;;;;;;;;;;;;;6119715;23;20714;-88
2022/04/05 15:20:31;;;;;;;;;;;;;;;;;;6119367;23;20454;-87
2022/04/05 15:22:57;;;;;;;;;;;;;;;;;;6120756;23;20415;-86
2022/04/05 15:25:24;;;;;;;;;;;;;;;;;;6120688;23;25059;-90
2022/04/05 15:27:50;;;;;;;;;;;;;;;;;;6117641;23;20819;-88
2022/04/05 15:30:16;;;;;;;;;;;;;;;;;;6117759;23;25083;-88
2022/04/05 15:32:44;;;;;;;;;;;;;;;;;;6119446;23;20409;-88
2022/04/05 15:35:09;;;;;;;;;;;;;;;;;;6119564;23;20429;-88
2022/04/05 15:37:35;;;;;;;;;;;;;;;;;;6119720;23;25074;-89
2022/04/05 15:40:01;;;;;;;;;;;;;;;;;;6119946;23;20665;-87
2022/04/05 15:42:28;;;;;;;;;;;;;;;;;;6120660;23;20440;-87
2022/04/05 15:44:54;;;;;;;;;;;;;;;;;;6119808;23;25077;-86
2022/04/05 15:47:20;;;;;;;;;;;;;;;;;;6118928;23;20345;-88
2022/04/05 15:49:46;;;;;;;;;;;;;;;;;;6118998;23;20408;-89
2022/04/05 15:52:12;;;;;;;;;;;;;;;;;;6117687;23;20356;-87
2022/04/05 15:54:38;;;;;;;;;;;;;;;;;;6118374;23;20679;-87
2022/04/05 15:57:04;;;;;;;;;;;;;;;;;;6118287;23;25067;-87
2022/04/05 15:59:30;;;;;;;;;;;;;;;;;;6116919;23;20353;-89
2022/04/05 16:01:56;;;;;;;;;;;;;;;;;;6118633;23;20455;-88
2022/04/05 16:04:22;;;;;;;;;;;;;;;;;;6118906;23;20852;-88
2022/04/05 16:06:48;;;;;;;;;;;;;;;;;;6120858;23;20395;-87
2022/04/05 16:09:14;;;;;;;;;;;;;;;;;;6120327;23;25079;-86
2022/04/05 16:11:40;;;;;;;;;;;;;;;;;;6120780;23;20349;-90
2022/04/05 16:14:06;;;;;;;;;;;;;;;;;;6120944;23;20429;-87
2022/04/05 16:16:34;;;;;;;;;;;;;;;;;;6121249;23;20402;-87
2022/04/05 16:18:59;;;;;;;;;;;;;;;;;;6121119;23;20368;-88
2022/04/05 16:21:25;;;;;;;;;;;;;;;;;;6120798;23;25136;-88
2022/04/05 16:23:51;;;;;;;;;;;;;;;;;;6118466;23;20344;-88
2022/04/05 16:26:19;;;;;;;;;;;;;;;;;;6118603;23;25059;-89
2022/04/05 16:28:45;;;;;;;;;;;;;;;;;;6117566;23;25072;-88
2022/04/05 16:31:11;;;;;;;;;;;;;;;;;;6118852;23;20421;-89
2022/04/05 16:33:38;;;;;;;;;;;;;;;;;;6118962;23;20363;-90
2022/04/05 16:36:04;;;;;;;;;;;;;;;;;;6118874;23;25060;-87
2022/04/05 16:38:30;;;;;;;;;;;;;;;;;;6120010;23;20367;-89
2022/04/05 16:40:56;;;;;;;;;;;;;;;;;;6119457;23;20368;-88
2022/04/05 16:43:24;;;;;;;;;;;;;;;;;;6114250;23;25131;-87
2022/04/05 16:45:50;;;;;;;;;;;;;;;;;;6116462;23;20673;-87
2022/04/05 16:48:16;;;;;;;;;;;;;;;;;;6113361;23;20349;-88
2022/04/05 16:50:42;;;;;;;;;;;;;;;;;;6114589;23;20846;-88
2022/04/05 16:53:08;;;;;;;;;;;;;;;;;;6114307;23;20809;-88
2022/04/05 16:55:34;;;;;;;;;;;;;;;;;;6114770;23;20360;-89
2022/04/05 16:58:00;;;;;;;;;;;;;;;;;;6117870;23;20364;-88
2022/04/05 17:00:26;;;;;;;;;;;;;;;;;;6119686;23;20348;-87
2022/04/05 17:02:52;;;;;;;;;;;;;;;;;;6120325;23;20358;-88
2022/04/05 17:05:18;;;;;;;;;;;;;;;;;;6134861;23;25125;-88
2022/04/05 17:07:44;;;;;;;;;;;;;;;;;;6131462;23;20363;-87
2022/04/05 17:10:11;;;;;;;;;;;;;;;;;;6134282;23;20425;-88
2022/04/05 17:12:38;;;;;;;;;;;;;;;;;;6118064;23;25061;-86
2022/04/05 17:15:08;;;;;;;;;;;;;;;;;;6119577;23;20807;-87
2022/04/05 17:17:35;;;;;;;;;;;;;;;;;;6119498;23;20468;-89
2022/04/05 17:20:00;;;;;;;;;;;;;;;;;;6117661;23;20440;-89
2022/04/05 17:22:26;;;;;;;;;;;;;;;;;;6120896;23;20424;-88
2022/04/05 17:24:53;;;;;;;;;;;;;;;;;;6124433;23;20456;-89